Portada
METAR-TAF:

METAR-TAF

Aeroports :

Jamshedpur, Índia

latitud: 22-48-49N, longitud: 086-10-05E, altitud: 146 m

Observació

L'informe es va fer fa 7 hores i 58 minuts, a les 12:00 UTC
Vent 6 kt del Est
Temperatura 32°C
Humitat 56%
Pressió 995 hPa
Visibilitat: 5000 m
Escasses núvols a una alçada de 10000 ft
calitja

METAR: VEJS 221200Z 09006KT 5000 HZ FEW100 32/22 Q0995

Hora: 01:28 (19:58 UTC)

Pronòstic

L'informe es va fer fa 8 hores i 58 minuts, a les 11:00 UTC
Pronòstic vàlid del 22 a les 12 UTC al 22 a les 21 UTC
Vent kt del Nord
Visibilitat: 4000 m
calitja
Evolucionant progressivament
l' 22 a les 18 UTC al 22 a les 20 UTC
Vent 5 kt del Sud-Est
Visibilitat: 2500 m
boirina, calitja

TAF: VEJS 221100Z 2212/2221 00000KT 4000 HZ NSC BECMG 2218/2220 14005KT 2500 BR HZ

Observacions i pronòstics meteorològics de més de 4000 aeroports (METAR i TAF).

Les estacions disponibles són els punts grocs i vermells al mapa.

Posi el ratolí al punt desitjat per veure el nom de l'estació.

Feu clic per veure les observacions i els pronòstics meteorològics.

Per canviar el mapa: feu clic els botons verds amb una creu de color negre per apropar; al botó verd amb un guió per allunyar la imatge; o en les fletxes verdes per a mapes adjacents.


METAR-TAF: